createdAt,value
2022-12-05T00:03:34.264Z,100.00
2022-12-05T00:08:35.984Z,100.00
2022-12-05T00:13:39.984Z,100.00
2022-12-05T00:18:42.493Z,100.00
2022-12-05T00:23:44.684Z,100.00
2022-12-05T00:28:46.686Z,100.00
2022-12-05T00:33:49.296Z,100.00
2022-12-05T00:38:51.871Z,100.00
2022-12-05T00:43:54.880Z,100.00
2022-12-05T00:48:58.516Z,100.00
2022-12-05T00:54:02.503Z,100.00
2022-12-05T00:59:05.595Z,100.00
2022-12-05T01:04:11.574Z,100.00
2022-12-05T01:09:15.751Z,100.00
2022-12-05T01:14:19.903Z,100.00
2022-12-05T01:19:24.890Z,100.00
2022-12-05T01:24:28.928Z,100.00
2022-12-05T01:29:30.735Z,100.00
2022-12-05T01:34:32.457Z,100.00
2022-12-05T01:39:34.164Z,100.00
2022-12-05T01:44:35.819Z,100.00
2022-12-05T01:49:41.315Z,100.00
2022-12-05T01:54:46.029Z,100.00
2022-12-05T01:59:52.884Z,100.00
2022-12-05T02:04:57.518Z,100.00
2022-12-05T02:09:59.730Z,100.00
2022-12-05T02:15:22.860Z,100.00
2022-12-05T02:20:49.196Z,100.00
2022-12-05T02:25:56.707Z,100.00
2022-12-05T02:31:08.790Z,100.00
2022-12-05T02:36:14.575Z,100.00
2022-12-05T02:41:34.104Z,100.00
2022-12-05T02:46:39.393Z,100.00
2022-12-05T02:51:53.126Z,100.00
2022-12-05T02:56:56.756Z,100.00
2022-12-05T03:01:58.481Z,100.00
2022-12-05T03:07:05.114Z,100.00
2022-12-05T03:12:13.148Z,100.00
2022-12-05T03:17:19.099Z,100.00
2022-12-05T03:22:35.668Z,100.00
2022-12-05T03:27:52.381Z,100.00
2022-12-05T03:33:03.777Z,100.00
2022-12-05T03:38:05.394Z,100.00
2022-12-05T03:43:14.736Z,100.00
2022-12-05T03:48:44.238Z,100.00
2022-12-05T03:53:56.252Z,100.00
2022-12-05T03:59:34.715Z,100.00
2022-12-05T04:04:40.665Z,98.19
2022-12-05T04:09:50.246Z,97.55
2022-12-05T04:14:59.423Z,98.23
2022-12-05T04:20:24.062Z,98.29
2022-12-05T04:25:34.166Z,96.89
2022-12-05T04:30:43.109Z,97.24
2022-12-05T04:35:53.098Z,97.96
2022-12-05T04:41:01.493Z,98.29
2022-12-05T04:46:07.203Z,99.66
2022-12-05T04:51:17.422Z,99.43
2022-12-05T04:56:22.653Z,98.69
2022-12-05T05:01:38.513Z,100.00
2022-12-05T05:06:41.394Z,98.82
2022-12-05T05:11:43.144Z,98.35
2022-12-05T05:16:44.923Z,98.54
2022-12-05T05:21:46.646Z,98.07
2022-12-05T05:26:52.477Z,99.34
2022-12-05T05:31:57.243Z,97.88
2022-12-05T05:36:58.950Z,100.00
2022-12-05T05:42:00.637Z,100.00
2022-12-05T05:47:02.347Z,100.00
2022-12-05T05:52:04.217Z,100.00
2022-12-05T05:57:05.878Z,100.00
2022-12-05T06:02:07.626Z,100.00
2022-12-05T06:07:09.302Z,100.00
2022-12-05T06:12:11.009Z,100.00
2022-12-05T06:17:12.676Z,100.00
2022-12-05T06:22:14.410Z,100.00
2022-12-05T06:27:16.079Z,100.00
2022-12-05T06:32:17.739Z,100.00
2022-12-05T06:37:19.423Z,100.00
2022-12-05T06:42:22.446Z,100.00
2022-12-05T06:47:24.156Z,100.00
2022-12-05T06:52:25.834Z,100.00
2022-12-05T06:57:31.293Z,100.00
2022-12-05T07:02:33.180Z,100.00
2022-12-05T07:07:35.014Z,100.00
2022-12-05T07:12:36.815Z,100.00
2022-12-05T07:17:39.202Z,100.00
2022-12-05T07:22:40.913Z,100.00
2022-12-05T07:27:42.598Z,100.00
2022-12-05T07:32:44.344Z,100.00
2022-12-05T07:37:46.044Z,100.00
2022-12-05T07:42:53.470Z,100.00
2022-12-05T07:47:55.240Z,100.00
2022-12-05T07:52:57.041Z,100.00
2022-12-05T07:57:58.716Z,100.00
2022-12-05T08:03:03.298Z,100.00
2022-12-05T08:08:05.494Z,100.00
2022-12-05T08:13:08.531Z,100.00
2022-12-05T08:18:11.485Z,100.00
2022-12-05T08:23:13.151Z,100.00
2022-12-05T08:28:14.816Z,100.00
2022-12-05T08:33:16.507Z,100.00
2022-12-05T08:38:18.214Z,100.00
2022-12-05T08:43:19.896Z,100.00
2022-12-05T08:48:27.549Z,100.00
2022-12-05T08:53:30.820Z,100.00
2022-12-05T08:58:32.620Z,100.00
2022-12-05T09:03:34.455Z,100.00
2022-12-05T09:08:36.819Z,98.08
2022-12-05T09:13:38.993Z,97.67
2022-12-05T09:18:41.137Z,97.03
2022-12-05T09:23:44.240Z,95.47
2022-12-05T09:28:46.037Z,95.44
2022-12-05T09:33:49.058Z,95.12
2022-12-05T09:38:52.038Z,95.82
2022-12-05T09:44:12.987Z,94.56
2022-12-05T09:49:14.696Z,93.75
2022-12-05T09:54:17.135Z,94.07
2022-12-05T09:59:20.642Z,94.12
2022-12-05T10:04:46.484Z,94.41
2022-12-05T10:09:56.881Z,94.67
2022-12-05T10:15:13.205Z,94.49
2022-12-05T10:20:28.815Z,94.86
2022-12-05T10:25:32.468Z,95.10
2022-12-05T10:30:36.897Z,95.04
2022-12-05T10:35:40.496Z,94.78
2022-12-05T10:40:46.984Z,95.07
2022-12-05T10:45:48.710Z,94.66
2022-12-05T10:50:56.239Z,93.61
2022-12-05T10:56:29.427Z,92.95
2022-12-05T11:01:19.911Z,92.68
2022-12-05T11:06:28.407Z,92.56
2022-12-05T11:11:35.441Z,92.96
2022-12-05T11:16:38.927Z,92.94
2022-12-05T11:21:44.190Z,93.19
2022-12-05T11:26:46.041Z,93.69
2022-12-05T11:31:52.318Z,92.25
2022-12-05T11:37:04.976Z,93.09
2022-12-05T11:42:15.816Z,91.62
2022-12-05T11:47:49.800Z,91.26
2022-12-05T11:53:22.123Z,91.26
2022-12-05T11:58:25.369Z,90.09
2022-12-05T12:03:54.864Z,89.90
2022-12-05T12:09:12.897Z,89.58
2022-12-05T12:14:25.991Z,89.01
2022-12-05T12:19:54.153Z,89.99
2022-12-05T12:25:03.150Z,89.20
2022-12-05T12:30:15.130Z,89.39
2022-12-05T12:35:32.268Z,88.98
2022-12-05T12:40:59.611Z,89.08
2022-12-05T12:46:16.578Z,88.36
2022-12-05T12:51:18.299Z,88.62
2022-12-05T12:56:25.848Z,88.89
2022-12-05T13:01:34.146Z,88.39
2022-12-05T13:06:39.830Z,88.02
2022-12-05T13:11:46.278Z,88.45
2022-12-05T13:16:52.169Z,87.90
2022-12-05T13:21:57.411Z,87.93
2022-12-05T13:27:02.625Z,88.79
2022-12-05T13:32:05.670Z,88.20
2022-12-05T13:37:36.355Z,88.67
2022-12-05T13:42:38.514Z,87.69
2022-12-05T13:47:46.285Z,88.29
2022-12-05T13:52:52.214Z,90.09
2022-12-05T13:57:57.391Z,90.73
2022-12-05T14:03:16.345Z,92.61
2022-12-05T14:08:35.965Z,93.30
2022-12-05T14:13:43.558Z,94.86
2022-12-05T14:19:05.892Z,95.93
2022-12-05T14:24:27.061Z,95.17
2022-12-05T14:29:37.415Z,96.22
2022-12-05T14:34:54.992Z,96.32
2022-12-05T14:40:00.201Z,96.15
2022-12-05T14:45:21.640Z,95.86
2022-12-05T14:50:32.522Z,97.71
2022-12-05T14:55:36.356Z,98.35
2022-12-05T15:00:38.325Z,98.44
2022-12-05T15:05:43.344Z,98.23
2022-12-05T15:10:45.809Z,98.05
2022-12-05T15:16:06.423Z,98.19
2022-12-05T15:21:21.187Z,99.05
2022-12-05T15:26:55.238Z,98.90
2022-12-05T15:32:25.689Z,100.00
2022-12-05T15:37:51.444Z,100.00
2022-12-05T15:42:57.631Z,99.70
2022-12-05T15:48:02.413Z,98.72
2022-12-05T15:53:34.806Z,97.35
2022-12-05T15:58:47.813Z,97.92
2022-12-05T16:04:00.066Z,96.12
2022-12-05T16:09:10.110Z,95.59
2022-12-05T16:14:18.261Z,96.41
2022-12-05T16:19:32.954Z,95.15
2022-12-05T16:24:48.447Z,95.32
2022-12-05T16:30:29.839Z,95.44
2022-12-05T16:35:36.120Z,93.96
2022-12-05T16:40:57.331Z,94.33
2022-12-05T16:46:28.111Z,94.84
2022-12-05T16:51:40.653Z,95.35
2022-12-05T16:56:42.326Z,94.08
2022-12-05T17:01:43.991Z,92.74
2022-12-05T17:06:45.719Z,92.05
2022-12-05T17:11:51.007Z,92.15
2022-12-05T17:16:52.668Z,92.23
2022-12-05T17:21:54.767Z,93.59
2022-12-05T17:26:56.418Z,93.34
2022-12-05T17:31:58.190Z,92.70
2022-12-05T17:37:00.342Z,93.48
2022-12-05T17:42:02.409Z,92.68
2022-12-05T17:47:07.933Z,93.38
2022-12-05T17:52:26.617Z,92.61
2022-12-05T17:57:28.291Z,92.98
2022-12-05T18:02:29.946Z,93.57
2022-12-05T18:07:31.672Z,94.06
2022-12-05T18:12:34.090Z,94.29
2022-12-05T18:17:35.955Z,94.87
2022-12-05T18:22:37.667Z,96.36
2022-12-05T18:27:39.397Z,95.77
2022-12-05T18:32:41.119Z,97.06
2022-12-05T18:37:42.800Z,97.10
2022-12-05T18:42:44.460Z,98.52
2022-12-05T18:47:46.120Z,100.00
2022-12-05T18:52:47.865Z,99.98
2022-12-05T18:57:49.595Z,100.00
2022-12-05T19:02:52.207Z,100.00
2022-12-05T19:07:54.414Z,100.00
2022-12-05T19:12:57.141Z,100.00
2022-12-05T19:17:58.799Z,100.00
2022-12-05T19:23:01.161Z,100.00
2022-12-05T19:28:03.299Z,100.00
2022-12-05T19:33:04.976Z,100.00
2022-12-05T19:38:06.636Z,100.00
2022-12-05T19:43:08.318Z,100.00
2022-12-05T19:48:09.979Z,100.00
2022-12-05T19:53:12.437Z,100.00
2022-12-05T19:58:14.140Z,100.00
2022-12-05T20:03:15.937Z,100.00
2022-12-05T20:08:17.712Z,100.00
2022-12-05T20:13:45.452Z,100.00
2022-12-05T20:18:42.326Z,100.00
2022-12-05T20:23:44.054Z,100.00
2022-12-05T20:28:46.323Z,100.00
2022-12-05T20:33:50.813Z,100.00
2022-12-05T20:39:01.938Z,100.00
2022-12-05T20:44:07.329Z,100.00
2022-12-05T20:49:09.469Z,100.00
2022-12-05T20:54:16.647Z,100.00
2022-12-05T20:59:18.309Z,100.00
2022-12-05T21:04:20.081Z,100.00
2022-12-05T21:09:30.069Z,100.00
2022-12-05T21:14:34.232Z,100.00
2022-12-05T21:19:35.976Z,100.00
2022-12-05T21:24:37.638Z,99.60
2022-12-05T21:29:39.302Z,98.35
2022-12-05T21:34:40.999Z,98.77
2022-12-05T21:39:42.790Z,98.85
2022-12-05T21:44:44.468Z,98.46
2022-12-05T21:49:46.136Z,98.82
2022-12-05T21:54:48.092Z,98.77
2022-12-05T21:59:49.757Z,97.69
2022-12-05T22:04:51.480Z,97.87
2022-12-05T22:09:53.218Z,97.42
2022-12-05T22:14:54.958Z,99.68
2022-12-05T22:19:57.446Z,99.76
2022-12-05T22:24:59.698Z,100.00
2022-12-05T22:30:01.831Z,100.00
2022-12-05T22:35:04.530Z,100.00
2022-12-05T22:40:07.023Z,100.00
2022-12-05T22:45:09.198Z,100.00
2022-12-05T22:50:11.113Z,100.00
2022-12-05T22:55:12.790Z,100.00
2022-12-05T23:00:15.165Z,100.00
2022-12-05T23:05:16.957Z,99.43
2022-12-05T23:10:18.730Z,99.75
2022-12-05T23:15:20.467Z,99.95
2022-12-05T23:20:22.219Z,100.00
2022-12-05T23:25:23.950Z,100.00
2022-12-05T23:30:25.703Z,99.57
2022-12-05T23:35:27.433Z,100.00
2022-12-05T23:40:29.181Z,100.00
2022-12-05T23:45:30.906Z,99.13
2022-12-05T23:50:32.797Z,99.37
2022-12-05T23:55:34.720Z,99.58
